Hovedside
METAR-TAF:

METAR-TAF

Lufthavner :

Los Mochis, Mexico

breddegrad: 25-41N, lengdegrad: 109-05W, høyde over havet: 4 m

Gjeldene værobservasjon

Denne rapporten ble laget for 48 minutter siden, klokken 02:40 UTC
Vind 7 kt fra Vest-nordvest
Temperatur 28°C
Luftfuktighet 51%
Trykk 1003 hPa
Sikt: 12.9 km
Skyfri himmel

METAR: MMLM 200240Z 29007KT 8SM SKC 28/17 A2961 RMK SLP028 HZY

Tid: 21:28 (03:28 UTC)

Varsel

Denne rapporten ble laget for 10 timer og 15 minutter siden, klokken 17:13 UTC
Varsel gyldig fra 19. klokken 18 UTC til 20. klokken 18 UTC
Vind 10 kt fra Sør-sørvest
Sikt: 10 km
Skyfri himmel
Fra 20. klokken 0300 UTC
Vind 5 kt fra Vest-sørvest
Sikt: 9.7 km
Skyfri himmel
dis
Fra 20. klokken 1800 UTC
Vind 10 kt fra Vest
Sikt: 10 km
Skyfri himmel

TAF: MMLM 191713Z 1918/2018 20010KT P6SM SKC FM200300 24005KT 6SM HZ SKC FM201800 26010KT P6SM SKC

Værobservasjoner og værvarsel for over 4000 flyplasser (METAR- og TAF-rapporter).

Tilgjengelige stasjoner er representert av de røde og gule prikkene på kartet.

Hold musepekeren over prikken for å se navnet på stasjonen.

Klikk så for å se værobservasjoner og -varsler.

For å forandre kartet kan du klikke på den grønne knappen med svart kryss for å zoome inn, på den grønne knappen med strek for å zoome ut, eller på de grønne pilene for å se tilstøtende kart.


METAR-TAF: